Blaisdell, North Dakota
Current Conditions -  °F | °C
As of 10:13 AM on Wednesday 26 Nov 2014 (Local Time) from KMIB Reporting Station
Overcast Overcast  
Wind Chill:   Ceiling: 1200
Heat Index:   Visibility: 10mi
Dew Point: -2°   Wind: 3mph
Humidity: 85%   Direction: 10°N
Pressure: 30.39"   Gusts: NA
Location:  48.3281°N, 101.856°W
Report Text: KMIB 261613Z AUTO 01003KT 10SM SCT003 SCT009 OVC012 M17/M19 A3039 RMK AO2 VIS 1/4 RWY29 CIG 003V012
Loading
Personal Weather Stations






























Interactive Weather Map New forecast layout! Learn more

10-Day Weather Forecast

Advertisements
Track Severe Weather on mobile